sensor_id;sensor_type;location;lat;lon;timestamp;temperature;humidity
41080;DHT22;26826;50.718;7.114;2023-09-19T00:07:32;15.90;99.90
41080;DHT22;26826;50.718;7.114;2023-09-19T00:17:32;15.90;99.90
41080;DHT22;26826;50.718;7.114;2023-09-19T00:27:35;15.80;99.90
41080;DHT22;26826;50.718;7.114;2023-09-19T00:37:36;15.80;99.90
41080;DHT22;26826;50.718;7.114;2023-09-19T00:47:37;15.80;99.90
41080;DHT22;26826;50.718;7.114;2023-09-19T00:57:38;15.90;99.90
41080;DHT22;26826;50.718;7.114;2023-09-19T01:07:39;15.50;99.90
41080;DHT22;26826;50.718;7.114;2023-09-19T01:18:04;15.40;99.90
41080;DHT22;26826;50.718;7.114;2023-09-19T01:38:42;15.60;99.90
41080;DHT22;26826;50.718;7.114;2023-09-19T01:48:59;15.70;99.90
41080;DHT22;26826;50.718;7.114;2023-09-19T01:59:07;15.70;99.90
41080;DHT22;26826;50.718;7.114;2023-09-19T02:09:10;15.90;99.90
41080;DHT22;26826;50.718;7.114;2023-09-19T02:19:10;16.00;99.90
41080;DHT22;26826;50.718;7.114;2023-09-19T02:29:11;16.00;99.90
41080;DHT22;26826;50.718;7.114;2023-09-19T02:39:13;15.90;99.90
41080;DHT22;26826;50.718;7.114;2023-09-19T02:49:13;15.70;99.90
41080;DHT22;26826;50.718;7.114;2023-09-19T02:59:14;15.60;99.90
41080;DHT22;26826;50.718;7.114;2023-09-19T03:09:14;15.40;99.90
41080;DHT22;26826;50.718;7.114;2023-09-19T03:19:16;15.30;99.90
41080;DHT22;26826;50.718;7.114;2023-09-19T03:29:16;15.10;99.90
41080;DHT22;26826;50.718;7.114;2023-09-19T03:39:17;14.90;99.90
41080;DHT22;26826;50.718;7.114;2023-09-19T03:49:18;14.70;99.90
41080;DHT22;26826;50.718;7.114;2023-09-19T03:59:19;14.60;99.90
41080;DHT22;26826;50.718;7.114;2023-09-19T04:09:19;14.40;99.90
41080;DHT22;26826;50.718;7.114;2023-09-19T04:19:20;14.40;99.90
41080;DHT22;26826;50.718;7.114;2023-09-19T04:29:22;14.60;99.90
41080;DHT22;26826;50.718;7.114;2023-09-19T04:39:23;14.60;99.90
41080;DHT22;26826;50.718;7.114;2023-09-19T04:49:26;14.70;99.90
41080;DHT22;26826;50.718;7.114;2023-09-19T04:59:26;14.60;99.90
41080;DHT22;26826;50.718;7.114;2023-09-19T05:09:28;14.60;99.90
41080;DHT22;26826;50.718;7.114;2023-09-19T05:19:29;14.50;99.90
41080;DHT22;26826;50.718;7.114;2023-09-19T05:29:29;14.40;99.90
41080;DHT22;26826;50.718;7.114;2023-09-19T05:39:30;14.20;99.90
41080;DHT22;26826;50.718;7.114;2023-09-19T05:49:30;14.30;99.90
41080;DHT22;26826;50.718;7.114;2023-09-19T05:59:31;14.30;99.90
41080;DHT22;26826;50.718;7.114;2023-09-19T06:09:31;14.40;99.90
41080;DHT22;26826;50.718;7.114;2023-09-19T06:19:32;14.30;99.90
41080;DHT22;26826;50.718;7.114;2023-09-19T06:29:33;14.50;99.90
41080;DHT22;26826;50.718;7.114;2023-09-19T06:39:34;14.50;99.90
41080;DHT22;26826;50.718;7.114;2023-09-19T06:49:34;14.70;99.90
41080;DHT22;26826;50.718;7.114;2023-09-19T06:59:35;14.80;99.90
41080;DHT22;26826;50.718;7.114;2023-09-19T07:09:37;15.00;99.90
41080;DHT22;26826;50.718;7.114;2023-09-19T07:19:37;15.30;99.90
41080;DHT22;26826;50.718;7.114;2023-09-19T07:29:38;15.60;99.90
41080;DHT22;26826;50.718;7.114;2023-09-19T07:39:39;15.70;99.90
41080;DHT22;26826;50.718;7.114;2023-09-19T07:49:41;16.10;99.90
41080;DHT22;26826;50.718;7.114;2023-09-19T07:59:42;16.40;99.90
41080;DHT22;26826;50.718;7.114;2023-09-19T08:09:43;17.20;99.90
41080;DHT22;26826;50.718;7.114;2023-09-19T08:19:49;17.40;99.90
41080;DHT22;26826;50.718;7.114;2023-09-19T08:29:53;17.70;99.90
41080;DHT22;26826;50.718;7.114;2023-09-19T08:39:53;18.10;99.90
41080;DHT22;26826;50.718;7.114;2023-09-19T08:49:59;17.90;99.90
41080;DHT22;26826;50.718;7.114;2023-09-19T09:00:03;18.30;99.90
41080;DHT22;26826;50.718;7.114;2023-09-19T09:10:10;18.80;99.90
41080;DHT22;26826;50.718;7.114;2023-09-19T09:20:10;18.90;99.90
41080;DHT22;26826;50.718;7.114;2023-09-19T09:30:15;19.50;99.90
41080;DHT22;26826;50.718;7.114;2023-09-19T09:40:45;19.90;99.90
41080;DHT22;26826;50.718;7.114;2023-09-19T09:50:46;19.80;99.90
41080;DHT22;26826;50.718;7.114;2023-09-19T10:00:56;19.60;99.90
41080;DHT22;26826;50.718;7.114;2023-09-19T10:11:00;19.90;99.90
41080;DHT22;26826;50.718;7.114;2023-09-19T10:21:06;20.50;99.90
41080;DHT22;26826;50.718;7.114;2023-09-19T10:31:09;21.30;99.90
41080;DHT22;26826;50.718;7.114;2023-09-19T10:41:14;21.30;99.90
41080;DHT22;26826;50.718;7.114;2023-09-19T10:51:16;21.60;99.90
41080;DHT22;26826;50.718;7.114;2023-09-19T11:01:19;21.70;99.90
41080;DHT22;26826;50.718;7.114;2023-09-19T11:21:39;22.60;99.90
41080;DHT22;26826;50.718;7.114;2023-09-19T11:31:42;22.30;99.90
41080;DHT22;26826;50.718;7.114;2023-09-19T11:41:46;22.50;99.90
41080;DHT22;26826;50.718;7.114;2023-09-19T11:51:52;22.40;99.90
41080;DHT22;26826;50.718;7.114;2023-09-19T12:01:53;22.10;98.90
41080;DHT22;26826;50.718;7.114;2023-09-19T12:11:57;22.60;98.80
41080;DHT22;26826;50.718;7.114;2023-09-19T12:31:59;23.60;97.80
41080;DHT22;26826;50.718;7.114;2023-09-19T12:42:04;24.30;95.70
41080;DHT22;26826;50.718;7.114;2023-09-19T12:52:09;23.10;96.20
41080;DHT22;26826;50.718;7.114;2023-09-19T13:02:10;24.10;95.80
41080;DHT22;26826;50.718;7.114;2023-09-19T13:12:34;23.10;96.20
41080;DHT22;26826;50.718;7.114;2023-09-19T13:32:40;23.30;96.10
41080;DHT22;26826;50.718;7.114;2023-09-19T13:42:43;22.30;97.50
41080;DHT22;26826;50.718;7.114;2023-09-19T13:52:43;22.20;97.50
41080;DHT22;26826;50.718;7.114;2023-09-19T14:02:44;22.40;97.90
41080;DHT22;26826;50.718;7.114;2023-09-19T14:12:46;22.60;96.80
41080;DHT22;26826;50.718;7.114;2023-09-19T14:22:46;22.90;97.20
41080;DHT22;26826;50.718;7.114;2023-09-19T14:32:47;23.00;97.30
41080;DHT22;26826;50.718;7.114;2023-09-19T14:42:47;22.70;97.20
41080;DHT22;26826;50.718;7.114;2023-09-19T14:52:48;23.50;96.40
41080;DHT22;26826;50.718;7.114;2023-09-19T15:02:51;23.10;96.30
41080;DHT22;26826;50.718;7.114;2023-09-19T15:12:52;22.60;96.10
41080;DHT22;26826;50.718;7.114;2023-09-19T15:22:53;22.30;97.00
41080;DHT22;26826;50.718;7.114;2023-09-19T15:32:54;22.00;97.40
41080;DHT22;26826;50.718;7.114;2023-09-19T15:42:54;22.00;97.00
41080;DHT22;26826;50.718;7.114;2023-09-19T15:52:56;21.80;98.00
41080;DHT22;26826;50.718;7.114;2023-09-19T16:02:58;21.50;98.40
41080;DHT22;26826;50.718;7.114;2023-09-19T16:12:58;21.10;99.00
41080;DHT22;26826;50.718;7.114;2023-09-19T16:22:59;20.90;99.10
41080;DHT22;26826;50.718;7.114;2023-09-19T16:33:00;20.70;99.80
41080;DHT22;26826;50.718;7.114;2023-09-19T16:43:00;20.90;99.90
41080;DHT22;26826;50.718;7.114;2023-09-19T16:53:01;20.50;99.90
41080;DHT22;26826;50.718;7.114;2023-09-19T17:03:02;20.30;99.90
41080;DHT22;26826;50.718;7.114;2023-09-19T17:13:03;20.10;99.90
41080;DHT22;26826;50.718;7.114;2023-09-19T17:23:08;20.00;99.90
41080;DHT22;26826;50.718;7.114;2023-09-19T17:33:08;19.70;99.90
41080;DHT22;26826;50.718;7.114;2023-09-19T17:43:09;19.40;99.90
41080;DHT22;26826;50.718;7.114;2023-09-19T17:53:10;19.10;99.90
41080;DHT22;26826;50.718;7.114;2023-09-19T18:03:11;19.00;99.90
41080;DHT22;26826;50.718;7.114;2023-09-19T18:13:12;18.90;99.90
41080;DHT22;26826;50.718;7.114;2023-09-19T18:23:12;18.70;99.90
41080;DHT22;26826;50.718;7.114;2023-09-19T18:33:12;18.60;99.90
41080;DHT22;26826;50.718;7.114;2023-09-19T18:43:14;18.40;99.90
41080;DHT22;26826;50.718;7.114;2023-09-19T18:53:17;18.50;99.90
41080;DHT22;26826;50.718;7.114;2023-09-19T19:03:17;18.20;99.90
41080;DHT22;26826;50.718;7.114;2023-09-19T19:13:18;18.20;99.90
41080;DHT22;26826;50.718;7.114;2023-09-19T19:23:19;18.20;99.90
41080;DHT22;26826;50.718;7.114;2023-09-19T19:33:19;18.10;99.90
41080;DHT22;26826;50.718;7.114;2023-09-19T19:43:22;18.10;99.90
41080;DHT22;26826;50.718;7.114;2023-09-19T19:53:25;18.20;99.90
41080;DHT22;26826;50.718;7.114;2023-09-19T20:03:26;18.30;99.90
41080;DHT22;26826;50.718;7.114;2023-09-19T20:13:27;18.30;99.90
41080;DHT22;26826;50.718;7.114;2023-09-19T20:23:27;18.30;99.90
41080;DHT22;26826;50.718;7.114;2023-09-19T20:33:28;18.30;99.90
41080;DHT22;26826;50.718;7.114;2023-09-19T20:43:31;18.20;99.90
41080;DHT22;26826;50.718;7.114;2023-09-19T20:53:32;18.20;99.90
41080;DHT22;26826;50.718;7.114;2023-09-19T21:03:34;18.20;99.90
41080;DHT22;26826;50.718;7.114;2023-09-19T21:24:16;18.30;99.90
41080;DHT22;26826;50.718;7.114;2023-09-19T21:34:21;18.30;99.90
41080;DHT22;26826;50.718;7.114;2023-09-19T21:44:21;18.40;99.90
41080;DHT22;26826;50.718;7.114;2023-09-19T21:54:22;18.30;99.90
41080;DHT22;26826;50.718;7.114;2023-09-19T22:04:22;18.40;99.90
41080;DHT22;26826;50.718;7.114;2023-09-19T22:14:23;18.30;99.90
41080;DHT22;26826;50.718;7.114;2023-09-19T22:24:29;18.20;99.90
41080;DHT22;26826;50.718;7.114;2023-09-19T22:34:30;18.10;99.90
41080;DHT22;26826;50.718;7.114;2023-09-19T22:44:31;18.00;99.90
41080;DHT22;26826;50.718;7.114;2023-09-19T22:54:33;18.00;99.90
41080;DHT22;26826;50.718;7.114;2023-09-19T23:04:36;18.00;99.90
41080;DHT22;26826;50.718;7.114;2023-09-19T23:14:38;17.80;99.90
41080;DHT22;26826;50.718;7.114;2023-09-19T23:24:38;17.60;99.90
41080;DHT22;26826;50.718;7.114;2023-09-19T23:34:41;17.50;99.90
41080;DHT22;26826;50.718;7.114;2023-09-19T23:44:41;17.40;99.90
41080;DHT22;26826;50.718;7.114;2023-09-19T23:54:42;17.20;99.90
